createdAt,value
2023-01-22T00:00:25.291Z,93.10
2023-01-22T00:02:54.400Z,93.00
2023-01-22T00:05:23.388Z,93.00
2023-01-22T00:07:52.383Z,93.10
2023-01-22T00:10:21.450Z,93.20
2023-01-22T00:12:50.403Z,93.40
2023-01-22T00:15:19.588Z,93.40
2023-01-22T00:17:50.007Z,93.40
2023-01-22T00:20:19.860Z,93.40
2023-01-22T00:22:49.159Z,93.30
2023-01-22T00:25:18.385Z,93.20
2023-01-22T00:27:47.478Z,93.10
2023-01-22T00:30:16.909Z,93.00
2023-01-22T00:32:49.418Z,93.00
2023-01-22T00:35:18.589Z,92.90
2023-01-22T00:37:49.037Z,92.90
2023-01-22T00:40:19.190Z,93.00
2023-01-22T00:43:07.139Z,93.00
2023-01-22T00:45:36.003Z,93.10
2023-01-22T00:48:07.310Z,93.50
2023-01-22T00:50:36.344Z,93.80
2023-01-22T00:53:05.287Z,94.00
2023-01-22T00:55:34.393Z,94.20
2023-01-22T00:58:03.311Z,94.40
2023-01-22T01:00:32.610Z,94.40
2023-01-22T01:03:18.901Z,94.30
2023-01-22T01:05:49.524Z,94.30
2023-01-22T01:08:20.259Z,94.50
2023-01-22T01:10:49.463Z,94.80
2023-01-22T01:13:18.293Z,95.10
2023-01-22T01:15:47.325Z,95.40
2023-01-22T01:18:16.439Z,95.50
2023-01-22T01:20:45.431Z,95.50
2023-01-22T01:23:15.976Z,95.70
2023-01-22T01:25:44.961Z,96.00
2023-01-22T01:28:14.111Z,96.20
2023-01-22T01:30:43.162Z,96.30
2023-01-22T01:33:12.148Z,96.50
2023-01-22T01:35:41.594Z,96.80
2023-01-22T01:38:10.609Z,97.00
2023-01-22T01:40:45.137Z,97.10
2023-01-22T01:43:17.277Z,97.20
2023-01-22T01:45:46.624Z,97.10
2023-01-22T01:48:25.347Z,97.10
2023-01-22T01:51:01.223Z,97.10
2023-01-22T01:53:30.913Z,97.10
2023-01-22T01:56:03.789Z,97.20
2023-01-22T01:58:35.507Z,97.30
2023-01-22T02:01:10.250Z,97.50
2023-01-22T02:03:40.800Z,97.80
2023-01-22T02:06:12.687Z,98.00
2023-01-22T02:08:44.170Z,98.30
2023-01-22T02:11:15.331Z,98.70
2023-01-22T02:13:48.245Z,99.10
2023-01-22T02:16:17.500Z,99.50
2023-01-22T02:18:46.531Z,99.80
2023-01-22T02:21:45.098Z,99.90
2023-01-22T02:24:15.811Z,99.90
2023-01-22T02:26:46.685Z,99.90
2023-01-22T02:29:19.912Z,99.90
2023-01-22T02:31:49.871Z,99.90
2023-01-22T02:34:24.699Z,99.90
2023-01-22T02:36:56.303Z,99.90
2023-01-22T02:39:43.899Z,99.80
2023-01-22T02:42:13.099Z,99.80
2023-01-22T02:44:43.656Z,99.90
2023-01-22T02:47:14.245Z,99.90
2023-01-22T02:49:43.350Z,99.90
2023-01-22T02:52:13.742Z,99.90
2023-01-22T02:54:42.777Z,99.90
2023-01-22T02:57:11.906Z,99.90
2023-01-22T02:59:41.164Z,99.90
2023-01-22T03:02:13.146Z,99.90
2023-01-22T03:04:42.736Z,99.90
2023-01-22T03:07:14.206Z,99.90
2023-01-22T03:09:43.479Z,99.90
2023-01-22T03:12:13.094Z,99.90
2023-01-22T03:14:59.723Z,99.80
2023-01-22T03:17:46.093Z,99.70
2023-01-22T03:20:32.980Z,99.30
2023-01-22T03:23:03.393Z,99.20
2023-01-22T03:25:32.389Z,99.20
2023-01-22T03:28:16.728Z,99.30
2023-01-22T03:30:51.179Z,99.30
2023-01-22T03:33:20.294Z,99.20
2023-01-22T03:35:51.185Z,99.20
2023-01-22T03:38:24.020Z,99.10
2023-01-22T03:40:54.217Z,99.10
2023-01-22T03:43:24.577Z,99.20
2023-01-22T03:45:53.787Z,99.40
2023-01-22T03:48:23.969Z,99.60
2023-01-22T03:50:53.107Z,99.90
2023-01-22T03:53:23.474Z,99.90
2023-01-22T03:55:59.373Z,99.90
2023-01-22T03:58:28.539Z,99.90
2023-01-22T04:00:58.333Z,99.90
2023-01-22T04:03:29.982Z,99.90
2023-01-22T04:06:00.665Z,99.90
2023-01-22T04:08:33.094Z,99.90
2023-01-22T04:11:03.157Z,99.90
2023-01-22T04:13:34.047Z,99.90
2023-01-22T04:16:04.267Z,99.90
2023-01-22T04:19:05.440Z,99.90
2023-01-22T04:22:09.886Z,99.70
2023-01-22T04:24:41.428Z,99.50
2023-01-22T04:27:29.073Z,99.40
2023-01-22T04:29:58.805Z,99.40
2023-01-22T04:32:27.882Z,99.10
2023-01-22T04:35:15.609Z,98.90
2023-01-22T04:37:50.346Z,98.90
2023-01-22T04:40:21.272Z,98.90
2023-01-22T04:42:51.585Z,98.80
2023-01-22T04:45:21.572Z,98.60
2023-01-22T04:47:50.950Z,98.50
2023-01-22T04:50:25.690Z,98.40
2023-01-22T04:52:56.504Z,98.40
2023-01-22T04:55:28.154Z,98.30
2023-01-22T04:58:04.785Z,98.20
2023-01-22T05:00:33.947Z,98.10
2023-01-22T05:03:05.863Z,98.00
2023-01-22T05:05:35.764Z,98.00
2023-01-22T05:08:05.282Z,97.80
2023-01-22T05:10:38.879Z,97.70
2023-01-22T05:13:10.411Z,97.70
2023-01-22T05:15:41.290Z,97.60
2023-01-22T05:18:13.346Z,97.60
2023-01-22T05:20:49.621Z,97.60
2023-01-22T05:23:19.904Z,97.60
2023-01-22T05:25:51.617Z,97.40
2023-01-22T05:28:39.118Z,97.40
2023-01-22T05:31:26.367Z,97.40
2023-01-22T05:34:06.942Z,97.30
2023-01-22T05:36:36.049Z,97.30
2023-01-22T05:39:15.074Z,97.50
2023-01-22T05:41:46.185Z,97.50
2023-01-22T05:44:16.605Z,97.40
2023-01-22T05:46:52.003Z,97.40
2023-01-22T05:49:28.659Z,97.40
2023-01-22T05:51:59.092Z,97.20
2023-01-22T05:54:28.169Z,97.10
2023-01-22T05:57:00.553Z,97.10
2023-01-22T05:59:31.244Z,96.80
2023-01-22T06:02:04.381Z,96.90
2023-01-22T06:04:35.621Z,96.90
2023-01-22T06:07:23.082Z,96.80
2023-01-22T06:09:52.112Z,96.80
2023-01-22T06:12:23.524Z,96.80
2023-01-22T06:14:53.295Z,96.70
2023-01-22T06:17:22.440Z,96.80
2023-01-22T06:19:59.081Z,96.80
2023-01-22T06:22:28.571Z,97.00
2023-01-22T06:25:01.646Z,97.20
2023-01-22T06:27:49.493Z,97.30
2023-01-22T06:30:37.993Z,97.00
2023-01-22T06:33:08.424Z,95.90
2023-01-22T06:35:56.287Z,95.10
2023-01-22T06:38:26.097Z,94.80
2023-01-22T06:40:55.607Z,94.40
2023-01-22T06:43:27.702Z,94.00
2023-01-22T06:45:57.296Z,94.00
2023-01-22T06:48:44.056Z,93.90
2023-01-22T06:51:13.598Z,93.90
2023-01-22T06:53:42.832Z,94.40
2023-01-22T06:56:12.205Z,95.30
2023-01-22T06:58:43.574Z,96.00
2023-01-22T07:01:12.524Z,96.20
2023-01-22T07:03:42.561Z,96.40
2023-01-22T07:06:11.820Z,96.20
2023-01-22T07:08:41.316Z,96.20
2023-01-22T07:11:10.807Z,96.30
2023-01-22T07:13:40.216Z,94.90
2023-01-22T07:16:11.297Z,92.90
2023-01-22T07:18:40.273Z,90.90
2023-01-22T07:21:09.286Z,88.80
2023-01-22T07:23:38.227Z,85.40
2023-01-22T07:26:07.261Z,82.20
2023-01-22T07:28:36.357Z,80.10
2023-01-22T07:31:05.542Z,78.90
2023-01-22T07:33:36.157Z,78.20
2023-01-22T07:36:05.692Z,77.80
2023-01-22T07:38:34.693Z,77.60
2023-01-22T07:41:07.239Z,77.60
2023-01-22T07:43:40.431Z,78.10
2023-01-22T07:46:09.877Z,80.00
2023-01-22T07:48:40.403Z,82.80
2023-01-22T07:51:09.574Z,86.60
2023-01-22T07:53:40.278Z,89.50
2023-01-22T07:56:09.953Z,88.50
2023-01-22T07:58:39.521Z,87.50
2023-01-22T08:01:09.078Z,88.00
2023-01-22T08:03:39.869Z,88.60
2023-01-22T08:06:13.262Z,89.80
2023-01-22T08:08:42.871Z,86.50
2023-01-22T08:11:11.809Z,79.40
2023-01-22T08:13:40.790Z,72.90
2023-01-22T08:16:10.307Z,70.10
2023-01-22T08:18:40.960Z,70.00
2023-01-22T08:21:10.164Z,69.20
2023-01-22T08:23:39.059Z,71.60
2023-01-22T08:26:07.994Z,73.20
2023-01-22T08:28:38.867Z,71.10
2023-01-22T08:31:16.378Z,67.30
2023-01-22T08:33:53.537Z,64.30
2023-01-22T08:36:22.615Z,64.20
2023-01-22T08:38:51.660Z,63.40
2023-01-22T08:41:20.722Z,61.60
2023-01-22T08:43:50.016Z,59.80
2023-01-22T08:46:19.088Z,58.40
2023-01-22T08:48:49.069Z,57.10
2023-01-22T08:51:19.545Z,55.90
2023-01-22T08:53:48.526Z,54.10
2023-01-22T08:56:17.359Z,53.50
2023-01-22T08:58:46.269Z,53.80
2023-01-22T09:01:19.221Z,56.20
2023-01-22T09:03:49.006Z,58.50
2023-01-22T09:06:19.578Z,59.00
2023-01-22T09:08:48.657Z,58.20
2023-01-22T09:11:17.734Z,54.80
2023-01-22T09:13:47.672Z,51.80
2023-01-22T09:16:16.736Z,51.60
2023-01-22T09:18:45.618Z,53.10
2023-01-22T09:21:14.598Z,53.20
2023-01-22T09:23:45.709Z,53.10
2023-01-22T09:26:14.750Z,51.60
2023-01-22T09:28:44.424Z,48.30
2023-01-22T09:31:15.544Z,46.90
2023-01-22T09:33:44.622Z,44.60
2023-01-22T09:36:16.094Z,42.80
2023-01-22T09:39:05.347Z,40.90
2023-01-22T09:41:38.457Z,40.30
2023-01-22T09:44:12.459Z,38.00
2023-01-22T09:46:45.689Z,36.70
2023-01-22T09:49:17.717Z,36.80
2023-01-22T09:51:48.649Z,37.10
2023-01-22T09:54:18.987Z,37.60
2023-01-22T09:56:50.440Z,38.00
2023-01-22T09:59:21.108Z,37.90
2023-01-22T10:01:53.979Z,37.70
2023-01-22T10:04:31.255Z,37.90
2023-01-22T10:07:03.060Z,38.40
2023-01-22T10:09:35.421Z,39.30
2023-01-22T10:12:14.257Z,40.70
2023-01-22T10:14:44.853Z,42.40
2023-01-22T10:17:21.587Z,44.00
2023-01-22T10:19:55.736Z,44.30
2023-01-22T10:22:26.990Z,44.20
2023-01-22T10:24:58.710Z,44.70
2023-01-22T10:27:36.900Z,45.70
2023-01-22T10:30:17.248Z,45.30
2023-01-22T10:32:46.624Z,44.70
2023-01-22T10:35:20.086Z,45.00
2023-01-22T10:37:51.231Z,45.30
2023-01-22T10:40:27.944Z,43.90
2023-01-22T10:43:05.841Z,43.40
2023-01-22T10:45:34.964Z,43.10
2023-01-22T10:48:22.366Z,43.80
2023-01-22T10:51:03.423Z,45.10
2023-01-22T10:53:34.715Z,45.00
2023-01-22T10:56:10.349Z,44.20
2023-01-22T10:58:48.344Z,43.20
2023-01-22T11:01:33.890Z,43.60
2023-01-22T11:04:14.777Z,43.70
2023-01-22T11:06:54.382Z,43.10
2023-01-22T11:09:29.049Z,42.70
2023-01-22T11:12:06.659Z,42.50
2023-01-22T11:14:38.503Z,43.40
2023-01-22T11:17:15.670Z,43.70
2023-01-22T11:19:53.488Z,43.90
2023-01-22T11:22:28.153Z,44.00
2023-01-22T11:24:57.336Z,44.60
2023-01-22T11:27:55.907Z,45.10
2023-01-22T11:30:54.982Z,45.50
2023-01-22T11:33:38.019Z,46.10
2023-01-22T11:36:12.474Z,46.30
2023-01-22T11:38:50.017Z,46.40
2023-01-22T11:41:41.062Z,46.50
2023-01-22T11:44:36.988Z,46.70
2023-01-22T11:47:28.405Z,46.70
2023-01-22T11:50:11.959Z,47.30
2023-01-22T11:52:50.710Z,47.50
2023-01-22T11:55:29.457Z,47.90
2023-01-22T11:58:10.278Z,48.40
2023-01-22T12:00:47.296Z,48.60
2023-01-22T12:03:57.899Z,48.90
2023-01-22T12:06:56.133Z,48.90
2023-01-22T12:09:29.717Z,48.60
2023-01-22T12:12:11.100Z,48.80
2023-01-22T12:14:56.665Z,48.80
2023-01-22T12:17:42.327Z,48.60
2023-01-22T12:20:26.592Z,48.70
2023-01-22T12:23:00.997Z,48.90
2023-01-22T12:25:37.775Z,48.90
2023-01-22T12:28:13.617Z,48.90
2023-01-22T12:30:49.357Z,48.90
2023-01-22T12:33:23.731Z,49.20
2023-01-22T12:35:54.728Z,49.30
2023-01-22T12:38:36.856Z,49.60
2023-01-22T12:41:19.853Z,49.90
2023-01-22T12:43:52.778Z,50.10
2023-01-22T12:46:30.313Z,50.20
2023-01-22T12:49:07.430Z,50.20
2023-01-22T12:51:43.019Z,50.20
2023-01-22T12:54:23.195Z,50.40
2023-01-22T12:56:53.715Z,50.40
2023-01-22T12:59:33.497Z,50.70
2023-01-22T13:02:04.652Z,50.80
2023-01-22T13:04:35.697Z,50.80
2023-01-22T13:07:21.517Z,51.00
2023-01-22T13:10:01.204Z,51.20
2023-01-22T13:12:38.390Z,51.10
2023-01-22T13:15:08.260Z,51.10
2023-01-22T13:17:37.993Z,51.30
2023-01-22T13:20:18.037Z,52.10
2023-01-22T13:22:47.796Z,51.50
2023-01-22T13:25:28.031Z,51.60
2023-01-22T13:27:58.474Z,51.60
2023-01-22T13:30:31.062Z,51.60
2023-01-22T13:33:08.174Z,51.50
2023-01-22T13:35:43.014Z,51.10
2023-01-22T13:38:22.223Z,50.90
2023-01-22T13:40:55.312Z,50.70
2023-01-22T13:43:25.017Z,50.70
2023-01-22T13:45:55.932Z,50.70
2023-01-22T13:48:27.961Z,50.60
2023-01-22T13:51:02.094Z,50.20
2023-01-22T13:53:33.611Z,50.30
2023-01-22T13:56:03.024Z,50.50
2023-01-22T13:58:48.028Z,50.60
2023-01-22T14:01:29.688Z,50.80
2023-01-22T14:04:02.759Z,51.10
2023-01-22T14:06:43.784Z,51.30
2023-01-22T14:09:12.946Z,51.30
2023-01-22T14:11:42.593Z,51.50
2023-01-22T14:14:19.864Z,51.60
2023-01-22T14:16:49.085Z,51.80
2023-01-22T14:19:18.195Z,51.90
2023-01-22T14:21:48.691Z,51.80
2023-01-22T14:24:17.772Z,51.80
2023-01-22T14:26:46.663Z,51.80
2023-01-22T14:29:16.017Z,51.60
2023-01-22T14:31:45.181Z,51.80
2023-01-22T14:34:14.148Z,51.50
2023-01-22T14:36:45.134Z,51.30
2023-01-22T14:39:15.835Z,51.10
2023-01-22T14:41:44.925Z,50.80
2023-01-22T14:44:13.908Z,50.50
2023-01-22T14:46:42.940Z,50.50
2023-01-22T14:49:11.959Z,50.40
2023-01-22T14:51:41.407Z,50.60
2023-01-22T14:54:10.398Z,50.50
2023-01-22T14:56:40.932Z,50.60
2023-01-22T14:59:20.687Z,50.70
2023-01-22T15:01:51.005Z,51.00
2023-01-22T15:04:19.980Z,50.80
2023-01-22T15:06:48.938Z,51.00
2023-01-22T15:09:17.940Z,51.10
2023-01-22T15:11:48.461Z,51.20
2023-01-22T15:14:17.440Z,51.40
2023-01-22T15:16:46.408Z,51.60
2023-01-22T15:19:16.890Z,51.80
2023-01-22T15:21:47.456Z,52.00
2023-01-22T15:24:16.513Z,52.20
2023-01-22T15:26:45.370Z,52.40
2023-01-22T15:29:16.447Z,52.20
2023-01-22T15:31:45.598Z,52.60
2023-01-22T15:34:14.717Z,52.60
2023-01-22T15:36:43.677Z,52.90
2023-01-22T15:39:12.656Z,52.90
2023-01-22T15:41:41.562Z,53.10
2023-01-22T15:44:15.419Z,53.40
2023-01-22T15:46:44.862Z,53.60
2023-01-22T15:49:13.779Z,53.80
2023-01-22T15:51:43.505Z,54.00
2023-01-22T15:54:16.735Z,54.30
2023-01-22T15:56:46.082Z,54.40
2023-01-22T15:59:16.675Z,54.70
2023-01-22T16:01:45.688Z,54.80
2023-01-22T16:04:14.705Z,55.00
2023-01-22T16:06:43.681Z,55.60
2023-01-22T16:09:12.786Z,55.90
2023-01-22T16:11:41.740Z,56.00
2023-01-22T16:14:10.734Z,56.00
2023-01-22T16:16:42.628Z,56.20
2023-01-22T16:19:13.711Z,56.50
2023-01-22T16:21:43.680Z,56.80
2023-01-22T16:24:12.904Z,56.90
2023-01-22T16:26:41.845Z,56.80
2023-01-22T16:29:11.645Z,56.80
2023-01-22T16:31:42.184Z,57.10
2023-01-22T16:34:13.680Z,57.40
2023-01-22T16:36:43.487Z,57.60
2023-01-22T16:39:18.694Z,57.70
2023-01-22T16:41:49.020Z,58.00
2023-01-22T16:44:19.641Z,58.10
2023-01-22T16:46:52.588Z,58.50
2023-01-22T16:49:23.385Z,58.90
2023-01-22T16:51:54.177Z,59.20
2023-01-22T16:54:28.175Z,59.50
2023-01-22T16:56:58.274Z,59.90
2023-01-22T16:59:45.813Z,60.30
2023-01-22T17:02:19.317Z,61.10
2023-01-22T17:04:48.589Z,61.90
2023-01-22T17:07:32.249Z,62.20
2023-01-22T17:10:02.671Z,62.70
2023-01-22T17:12:31.866Z,63.00
2023-01-22T17:15:00.957Z,63.30
2023-01-22T17:17:31.431Z,63.50
2023-01-22T17:20:00.491Z,64.00
2023-01-22T17:22:29.462Z,64.40
2023-01-22T17:24:58.424Z,64.80
2023-01-22T17:27:27.473Z,65.00
2023-01-22T17:29:56.455Z,65.40
2023-01-22T17:32:26.773Z,65.80
2023-01-22T17:34:57.362Z,66.00
2023-01-22T17:37:26.554Z,66.20
2023-01-22T17:39:55.486Z,66.00
2023-01-22T17:42:24.548Z,65.80
2023-01-22T17:44:53.668Z,65.70
2023-01-22T17:47:22.688Z,65.90
2023-01-22T17:49:51.878Z,66.10
2023-01-22T17:52:23.682Z,66.40
2023-01-22T17:54:54.855Z,66.60
2023-01-22T17:57:23.959Z,67.00
2023-01-22T17:59:53.054Z,67.10
2023-01-22T18:02:22.062Z,67.10
2023-01-22T18:04:52.329Z,67.20
2023-01-22T18:07:41.188Z,67.40
2023-01-22T18:10:11.717Z,67.50
2023-01-22T18:12:41.211Z,67.70
2023-01-22T18:15:12.317Z,67.90
2023-01-22T18:17:42.227Z,68.20
2023-01-22T18:20:13.653Z,68.50
2023-01-22T18:22:44.505Z,68.80
2023-01-22T18:25:13.934Z,69.10
2023-01-22T18:27:43.061Z,69.20
2023-01-22T18:30:15.156Z,69.40
2023-01-22T18:32:44.572Z,69.70
2023-01-22T18:35:13.482Z,70.00
2023-01-22T18:37:44.016Z,70.30
2023-01-22T18:40:14.526Z,70.40
2023-01-22T18:42:43.655Z,70.70
2023-01-22T18:45:13.598Z,71.10
2023-01-22T18:47:42.634Z,71.30
2023-01-22T18:50:16.878Z,71.50
2023-01-22T18:52:47.339Z,71.80
2023-01-22T18:55:17.723Z,72.10
2023-01-22T18:58:21.758Z,72.30
2023-01-22T19:01:12.207Z,72.50
2023-01-22T19:03:42.127Z,72.60
2023-01-22T19:06:14.833Z,72.80
2023-01-22T19:08:48.143Z,73.00
2023-01-22T19:11:17.976Z,73.10
2023-01-22T19:13:47.824Z,73.20
2023-01-22T19:16:19.016Z,73.30
2023-01-22T19:18:48.162Z,73.40
2023-01-22T19:21:19.155Z,73.50
2023-01-22T19:23:51.754Z,73.70
2023-01-22T19:26:24.218Z,74.00
2023-01-22T19:28:55.039Z,74.10
2023-01-22T19:31:26.198Z,74.40
2023-01-22T19:33:56.369Z,74.70
2023-01-22T19:36:27.678Z,74.90
2023-01-22T19:38:59.398Z,75.00
2023-01-22T19:41:31.728Z,75.20
2023-01-22T19:44:02.839Z,75.40
2023-01-22T19:46:32.036Z,75.50
2023-01-22T19:49:00.938Z,75.60
2023-01-22T19:51:30.993Z,75.60
2023-01-22T19:54:04.833Z,75.70
2023-01-22T19:56:37.409Z,75.80
2023-01-22T19:59:09.255Z,75.90
2023-01-22T20:01:39.654Z,76.00
2023-01-22T20:04:12.827Z,76.00
2023-01-22T20:06:45.498Z,76.20
2023-01-22T20:09:19.777Z,76.40
2023-01-22T20:11:54.287Z,76.50
2023-01-22T20:14:24.477Z,76.60
2023-01-22T20:16:54.430Z,76.80
2023-01-22T20:19:23.520Z,77.10
2023-01-22T20:21:52.617Z,78.30
2023-01-22T20:24:23.055Z,78.50
2023-01-22T20:26:55.937Z,78.80
2023-01-22T20:29:25.076Z,78.80
2023-01-22T20:31:54.411Z,79.20
2023-01-22T20:34:23.757Z,79.30
2023-01-22T20:36:52.798Z,79.40
2023-01-22T20:39:23.164Z,79.50
2023-01-22T20:41:52.201Z,79.70
2023-01-22T20:44:21.349Z,79.70
2023-01-22T20:46:51.231Z,79.90
2023-01-22T20:49:20.471Z,80.20
2023-01-22T20:52:08.091Z,80.30
2023-01-22T20:54:50.037Z,80.50
2023-01-22T20:57:27.756Z,80.80
2023-01-22T20:59:57.197Z,80.90
2023-01-22T21:02:27.562Z,81.20
2023-01-22T21:04:56.849Z,81.40
2023-01-22T21:07:25.793Z,81.50
2023-01-22T21:09:56.274Z,81.70
2023-01-22T21:12:25.446Z,81.70
2023-01-22T21:14:55.869Z,80.90
2023-01-22T21:17:25.046Z,80.80
2023-01-22T21:19:55.520Z,81.00
2023-01-22T21:22:25.418Z,81.20
2023-01-22T21:24:56.585Z,81.60
2023-01-22T21:27:26.140Z,82.00
2023-01-22T21:29:56.032Z,82.40
2023-01-22T21:32:25.746Z,82.80
2023-01-22T21:34:55.707Z,83.00
2023-01-22T21:37:25.227Z,83.30
2023-01-22T21:39:56.030Z,83.60
2023-01-22T21:42:42.638Z,84.60
2023-01-22T21:45:29.887Z,84.40
2023-01-22T21:47:59.352Z,84.70
2023-01-22T21:50:28.348Z,84.90
2023-01-22T21:52:58.033Z,85.20
2023-01-22T21:55:53.482Z,85.40
2023-01-22T21:58:23.716Z,85.60
2023-01-22T22:00:54.991Z,85.80
2023-01-22T22:03:24.077Z,86.10
2023-01-22T22:05:57.668Z,86.30
2023-01-22T22:08:26.685Z,86.70
2023-01-22T22:10:57.620Z,86.80
2023-01-22T22:13:26.769Z,87.20
2023-01-22T22:15:55.738Z,87.60
2023-01-22T22:18:24.732Z,88.00
2023-01-22T22:20:54.020Z,88.30
2023-01-22T22:23:23.046Z,88.60
2023-01-22T22:25:52.028Z,89.00
2023-01-22T22:28:22.398Z,89.30
2023-01-22T22:30:51.519Z,89.60
2023-01-22T22:33:20.570Z,89.80
2023-01-22T22:35:49.687Z,89.80
2023-01-22T22:38:18.624Z,89.40
2023-01-22T22:40:58.391Z,89.20
2023-01-22T22:43:28.979Z,89.30
2023-01-22T22:46:02.195Z,89.40
2023-01-22T22:48:31.469Z,89.70
2023-01-22T22:51:00.997Z,90.00
2023-01-22T22:53:30.198Z,90.20
2023-01-22T22:55:59.169Z,90.30
2023-01-22T22:58:29.740Z,90.50
2023-01-22T23:00:58.737Z,90.70
2023-01-22T23:03:27.675Z,90.90
2023-01-22T23:05:56.676Z,91.00
2023-01-22T23:08:25.633Z,91.20
2023-01-22T23:10:54.558Z,91.30
2023-01-22T23:13:23.675Z,91.40
2023-01-22T23:15:54.117Z,91.60
2023-01-22T23:18:23.208Z,91.80
2023-01-22T23:20:52.131Z,91.90
2023-01-22T23:23:21.135Z,92.10
2023-01-22T23:26:12.620Z,92.20
2023-01-22T23:28:41.652Z,92.20
2023-01-22T23:31:14.476Z,92.40
2023-01-22T23:33:43.992Z,92.50
2023-01-22T23:36:15.076Z,92.60
2023-01-22T23:38:44.071Z,92.50
2023-01-22T23:41:15.737Z,91.90
2023-01-22T23:43:45.671Z,91.90
2023-01-22T23:46:18.508Z,92.00
2023-01-22T23:48:47.636Z,92.20
2023-01-22T23:51:18.282Z,92.40
2023-01-22T23:53:49.111Z,92.60
2023-01-22T23:56:36.759Z,92.90
2023-01-22T23:59:06.112Z,93.10
